createdAt,value
2017-06-26T00:00:21.167Z,18.92
2017-06-26T00:02:51.032Z,18.89
2017-06-26T00:05:20.095Z,18.84
2017-06-26T00:07:49.160Z,18.78
2017-06-26T00:10:19.131Z,18.74
2017-06-26T00:12:48.261Z,18.77
2017-06-26T00:15:18.134Z,18.76
2017-06-26T00:17:47.274Z,18.75
2017-06-26T00:20:16.466Z,18.69
2017-06-26T00:22:45.510Z,18.72
2017-06-26T00:25:14.555Z,18.68
2017-06-26T00:27:44.393Z,18.69
2017-06-26T00:30:13.565Z,18.70
2017-06-26T00:32:42.626Z,18.73
2017-06-26T00:35:11.688Z,18.72
2017-06-26T00:37:40.711Z,18.72
2017-06-26T00:40:09.841Z,18.69
2017-06-26T00:42:38.908Z,18.66
2017-06-26T00:45:07.973Z,18.62
2017-06-26T00:47:37.055Z,18.61
2017-06-26T00:50:06.870Z,18.61
2017-06-26T00:52:35.990Z,18.58
2017-06-26T00:55:05.016Z,18.53
2017-06-26T00:57:34.111Z,18.52
2017-06-26T01:00:03.324Z,18.42
2017-06-26T01:02:33.186Z,18.35
2017-06-26T01:05:02.338Z,18.33
2017-06-26T01:07:31.363Z,18.31
2017-06-26T01:10:00.460Z,18.31
2017-06-26T01:12:29.523Z,18.30
2017-06-26T01:14:59.641Z,18.33
2017-06-26T01:17:28.701Z,18.33
2017-06-26T01:19:57.770Z,18.36
2017-06-26T01:22:26.809Z,18.33
2017-06-26T01:24:55.903Z,18.39
2017-06-26T01:27:24.968Z,18.40
2017-06-26T01:29:54.041Z,18.39
2017-06-26T01:32:23.114Z,18.41
2017-06-26T01:34:52.168Z,18.44
2017-06-26T01:37:21.212Z,18.40
2017-06-26T01:39:50.277Z,18.44
2017-06-26T01:42:19.364Z,18.43
2017-06-26T01:44:48.415Z,18.46
2017-06-26T01:47:17.500Z,18.48
2017-06-26T01:49:46.587Z,18.49
2017-06-26T01:52:15.658Z,18.49
2017-06-26T01:54:44.708Z,18.47
2017-06-26T01:57:13.828Z,18.49
2017-06-26T01:59:42.870Z,18.48
2017-06-26T02:02:12.013Z,18.54
2017-06-26T02:04:41.055Z,18.52
2017-06-26T02:07:10.108Z,18.51
2017-06-26T02:09:39.199Z,18.48
2017-06-26T02:12:08.290Z,18.47
2017-06-26T02:14:37.328Z,18.49
2017-06-26T02:17:06.428Z,18.48
2017-06-26T02:19:35.474Z,18.47
2017-06-26T02:22:04.563Z,18.47
2017-06-26T02:24:33.665Z,18.45
2017-06-26T02:27:02.705Z,18.43
2017-06-26T02:29:31.778Z,18.42
2017-06-26T02:32:00.829Z,18.42
2017-06-26T02:34:29.903Z,18.44
2017-06-26T02:36:58.955Z,18.48
2017-06-26T02:39:28.031Z,18.47
2017-06-26T02:41:57.104Z,18.48
2017-06-26T02:44:26.147Z,18.48
2017-06-26T02:46:55.213Z,18.47
2017-06-26T02:49:24.303Z,18.51
2017-06-26T02:51:53.340Z,18.50
2017-06-26T02:54:22.437Z,18.51
2017-06-26T02:56:51.525Z,18.50
2017-06-26T02:59:20.547Z,18.51
2017-06-26T03:01:49.642Z,18.52
2017-06-26T03:04:18.700Z,18.53
2017-06-26T03:06:47.764Z,18.51
2017-06-26T03:09:16.839Z,18.50
2017-06-26T03:12:04.484Z,18.48
2017-06-26T03:14:33.567Z,18.53
2017-06-26T03:17:02.636Z,18.52
2017-06-26T03:19:31.695Z,18.49
2017-06-26T03:22:00.780Z,18.49
2017-06-26T03:24:29.824Z,18.49
2017-06-26T03:26:58.904Z,18.54
2017-06-26T03:29:27.976Z,18.54
2017-06-26T03:31:57.072Z,18.54
2017-06-26T03:34:26.174Z,18.52
2017-06-26T03:36:55.252Z,18.53
2017-06-26T03:39:24.288Z,18.50
2017-06-26T03:41:53.344Z,18.48
2017-06-26T03:44:22.405Z,18.51
2017-06-26T03:46:51.484Z,18.50
2017-06-26T03:49:20.543Z,18.49
2017-06-26T03:51:49.636Z,18.49
2017-06-26T03:54:18.711Z,18.52
2017-06-26T03:56:47.752Z,18.54
2017-06-26T03:59:16.839Z,18.56
2017-06-26T04:01:45.881Z,18.56
2017-06-26T04:04:14.960Z,18.57
2017-06-26T04:06:44.028Z,18.54
2017-06-26T04:09:13.151Z,18.58
2017-06-26T04:11:42.184Z,18.61
2017-06-26T04:14:11.257Z,18.60
2017-06-26T04:16:40.323Z,18.57
2017-06-26T04:19:09.431Z,18.60
2017-06-26T04:21:38.611Z,18.58
2017-06-26T04:24:07.711Z,18.64
2017-06-26T04:26:36.778Z,18.66
2017-06-26T04:29:06.196Z,18.66
2017-06-26T04:31:35.260Z,18.64
2017-06-26T04:34:04.324Z,18.63
2017-06-26T04:36:33.419Z,18.63
2017-06-26T04:39:02.499Z,18.62
2017-06-26T04:41:31.572Z,18.57
2017-06-26T04:44:00.693Z,18.57
2017-06-26T04:46:29.767Z,18.58
2017-06-26T04:48:58.852Z,18.56
2017-06-26T04:51:27.928Z,18.56
2017-06-26T04:53:57.012Z,18.59
2017-06-26T04:56:26.068Z,18.54
2017-06-26T04:58:55.180Z,18.58
2017-06-26T05:01:24.275Z,18.55
2017-06-26T05:03:53.337Z,18.57
2017-06-26T05:06:22.432Z,18.61
2017-06-26T05:08:51.531Z,18.64
2017-06-26T05:11:20.572Z,18.67
2017-06-26T05:13:49.624Z,18.70
2017-06-26T05:16:18.724Z,18.73
2017-06-26T05:18:47.760Z,18.74
2017-06-26T05:21:16.899Z,18.76
2017-06-26T05:23:45.975Z,18.80
2017-06-26T05:26:15.072Z,18.75
2017-06-26T05:28:44.160Z,18.81
2017-06-26T05:31:13.277Z,18.80
2017-06-26T05:33:42.390Z,18.85
2017-06-26T05:36:11.482Z,18.86
2017-06-26T05:38:40.549Z,18.89
2017-06-26T05:41:09.628Z,18.92
2017-06-26T05:43:38.725Z,18.93
2017-06-26T05:46:07.784Z,18.98
2017-06-26T05:48:36.846Z,19.03
2017-06-26T05:51:06.012Z,19.10
2017-06-26T05:53:35.055Z,19.15
2017-06-26T05:56:04.152Z,19.19
2017-06-26T05:58:33.175Z,19.16
2017-06-26T06:01:02.285Z,19.16
2017-06-26T06:03:31.387Z,19.11
2017-06-26T06:06:00.471Z,19.14
2017-06-26T06:08:29.524Z,19.19
2017-06-26T06:10:58.608Z,19.25
2017-06-26T06:13:27.928Z,19.25
2017-06-26T06:15:57.075Z,19.28
2017-06-26T06:18:26.099Z,19.27
2017-06-26T06:20:55.174Z,19.24
2017-06-26T06:23:24.288Z,19.21
2017-06-26T06:25:53.324Z,19.20
2017-06-26T06:28:22.393Z,19.22
2017-06-26T06:30:51.460Z,19.16
2017-06-26T06:33:20.520Z,19.10
2017-06-26T06:35:49.633Z,19.08
2017-06-26T06:38:18.720Z,19.08
2017-06-26T06:40:47.823Z,18.93
2017-06-26T06:43:17.924Z,18.92
2017-06-26T06:45:47.027Z,18.88
2017-06-26T06:48:16.095Z,18.80
2017-06-26T06:50:45.153Z,18.71
2017-06-26T06:53:14.412Z,18.52
2017-06-26T06:55:43.475Z,18.37
2017-06-26T06:58:12.573Z,18.32
2017-06-26T07:00:41.668Z,18.30
2017-06-26T07:03:10.744Z,18.29
2017-06-26T07:05:39.811Z,18.20
2017-06-26T07:08:08.910Z,18.22
2017-06-26T07:10:38.021Z,18.21
2017-06-26T07:13:07.102Z,18.26
2017-06-26T07:15:36.336Z,18.33
2017-06-26T07:18:05.508Z,18.36
2017-06-26T07:20:34.593Z,18.40
2017-06-26T07:23:03.691Z,18.47
2017-06-26T07:25:32.745Z,18.61
2017-06-26T07:28:01.915Z,18.73
2017-06-26T07:30:30.996Z,18.84
2017-06-26T07:33:00.089Z,18.86
2017-06-26T07:35:29.150Z,18.92
2017-06-26T07:37:58.205Z,19.08
2017-06-26T07:40:27.301Z,19.30
2017-06-26T07:42:56.413Z,19.47
2017-06-26T07:45:25.486Z,19.57
2017-06-26T07:47:54.564Z,19.65
2017-06-26T07:50:23.658Z,19.66
2017-06-26T07:52:52.815Z,19.80
2017-06-26T07:55:22.086Z,19.99
2017-06-26T07:57:51.281Z,20.20
2017-06-26T08:00:20.326Z,20.31
2017-06-26T08:02:49.448Z,20.38
2017-06-26T08:05:18.494Z,20.52
2017-06-26T08:07:47.579Z,20.68
2017-06-26T08:10:16.680Z,20.73
2017-06-26T08:12:45.762Z,20.82
2017-06-26T08:15:14.813Z,20.81
2017-06-26T08:17:43.892Z,20.89
2017-06-26T08:20:12.954Z,20.98
2017-06-26T08:22:42.032Z,21.06
2017-06-26T08:25:11.124Z,21.00
2017-06-26T08:27:40.219Z,20.90
2017-06-26T08:30:09.324Z,21.00
2017-06-26T08:32:38.412Z,21.13
2017-06-26T08:35:07.525Z,21.15
2017-06-26T08:37:36.593Z,21.05
2017-06-26T08:40:05.653Z,20.99
2017-06-26T08:42:34.754Z,20.91
2017-06-26T08:45:03.843Z,20.88
2017-06-26T08:47:32.908Z,20.83
2017-06-26T08:50:02.017Z,20.87
2017-06-26T08:52:31.075Z,20.87
2017-06-26T08:55:00.148Z,20.90
2017-06-26T08:57:29.216Z,20.94
2017-06-26T08:59:58.267Z,20.96
2017-06-26T09:02:27.367Z,20.86
2017-06-26T09:04:56.452Z,20.68
2017-06-26T09:07:25.555Z,20.46
2017-06-26T09:09:54.661Z,20.36
2017-06-26T09:12:23.689Z,20.17
2017-06-26T09:14:52.775Z,20.11
2017-06-26T09:17:21.840Z,20.13
2017-06-26T09:19:50.942Z,20.06
2017-06-26T09:22:20.024Z,20.13
2017-06-26T09:24:49.073Z,20.20
2017-06-26T09:27:18.182Z,20.33
2017-06-26T09:29:47.440Z,20.68
2017-06-26T09:32:16.512Z,20.95
2017-06-26T09:34:45.580Z,21.24
2017-06-26T09:37:14.628Z,21.43
2017-06-26T09:39:43.729Z,21.58
2017-06-26T09:42:12.820Z,21.71
2017-06-26T09:44:41.892Z,21.84
2017-06-26T09:47:11.001Z,21.75
2017-06-26T09:49:40.040Z,21.65
2017-06-26T09:52:09.145Z,21.66
2017-06-26T09:54:38.211Z,21.86
2017-06-26T09:57:07.306Z,21.93
2017-06-26T09:59:37.092Z,22.05
2017-06-26T10:02:06.147Z,22.06
2017-06-26T10:04:35.230Z,22.26
2017-06-26T10:07:04.313Z,22.34
2017-06-26T10:09:33.392Z,22.18
2017-06-26T10:12:02.616Z,22.25
2017-06-26T10:14:31.652Z,22.40
2017-06-26T10:17:00.713Z,22.26
2017-06-26T10:19:31.511Z,22.05
2017-06-26T10:22:01.696Z,22.00
2017-06-26T10:24:30.853Z,21.96
2017-06-26T10:26:59.917Z,22.15
2017-06-26T10:29:28.980Z,22.56
2017-06-26T10:31:58.088Z,22.92
2017-06-26T10:34:27.144Z,23.36
2017-06-26T10:36:56.207Z,23.67
2017-06-26T10:39:26.285Z,23.61
2017-06-26T10:41:55.352Z,23.28
2017-06-26T10:44:24.413Z,23.10
2017-06-26T10:46:53.478Z,22.80
2017-06-26T10:49:22.521Z,22.61
2017-06-26T10:51:51.603Z,22.77
2017-06-26T10:54:20.683Z,22.81
2017-06-26T10:56:49.752Z,22.84
2017-06-26T10:59:18.873Z,23.00
2017-06-26T11:01:47.956Z,22.75
2017-06-26T11:04:17.091Z,22.62
2017-06-26T11:06:46.159Z,22.56
2017-06-26T11:09:15.214Z,22.48
2017-06-26T11:11:44.283Z,22.39
2017-06-26T11:14:13.380Z,22.41
2017-06-26T11:16:42.444Z,22.46
2017-06-26T11:19:11.489Z,22.62
2017-06-26T11:21:40.572Z,22.57
2017-06-26T11:24:09.665Z,22.51
2017-06-26T11:26:38.753Z,22.54
2017-06-26T11:29:07.807Z,22.58
2017-06-26T11:31:36.862Z,22.53
2017-06-26T11:34:05.963Z,22.39
2017-06-26T11:36:35.018Z,22.39
2017-06-26T11:39:04.124Z,22.38
2017-06-26T11:41:33.171Z,22.33
2017-06-26T11:44:02.264Z,22.25
2017-06-26T11:46:31.324Z,22.33
2017-06-26T11:49:00.425Z,22.51
2017-06-26T11:51:29.489Z,22.71
2017-06-26T11:53:58.777Z,22.66
2017-06-26T11:56:27.824Z,22.53
2017-06-26T11:58:58.063Z,22.39
2017-06-26T12:01:27.100Z,22.49
2017-06-26T12:03:56.185Z,22.63
2017-06-26T12:06:25.262Z,22.73
2017-06-26T12:08:56.038Z,22.76
2017-06-26T12:11:25.080Z,22.78
2017-06-26T12:13:54.153Z,22.88
2017-06-26T12:16:23.202Z,22.82
2017-06-26T12:18:52.263Z,22.76
2017-06-26T12:21:21.320Z,22.75
2017-06-26T12:23:50.462Z,22.94
2017-06-26T12:26:19.523Z,22.97
2017-06-26T12:28:48.612Z,22.89
2017-06-26T12:31:17.675Z,22.90
2017-06-26T12:33:46.785Z,23.02
2017-06-26T12:36:15.835Z,23.33
2017-06-26T12:38:44.911Z,23.52
2017-06-26T12:41:15.800Z,23.52
2017-06-26T12:43:44.866Z,23.56
2017-06-26T12:46:13.935Z,23.59
2017-06-26T12:48:43.000Z,23.51
2017-06-26T12:51:12.087Z,23.47
2017-06-26T12:53:41.141Z,23.48
2017-06-26T12:56:10.220Z,23.33
2017-06-26T12:58:39.308Z,23.43
2017-06-26T13:01:08.393Z,23.54
2017-06-26T13:03:37.483Z,23.54
2017-06-26T13:06:06.569Z,23.46
2017-06-26T13:08:35.660Z,23.53
2017-06-26T13:11:04.941Z,23.47
2017-06-26T13:13:34.046Z,23.44
2017-06-26T13:16:03.972Z,23.44
2017-06-26T13:18:33.474Z,23.37
2017-06-26T13:21:02.532Z,23.30
2017-06-26T13:23:31.964Z,23.34
2017-06-26T13:26:01.024Z,23.44
2017-06-26T13:28:30.062Z,23.34
2017-06-26T13:30:59.121Z,23.34
2017-06-26T13:33:28.224Z,23.27
2017-06-26T13:35:58.092Z,23.26
2017-06-26T13:38:27.411Z,23.25
2017-06-26T13:40:56.448Z,23.31
2017-06-26T13:43:25.554Z,23.37
2017-06-26T13:45:54.661Z,23.47
2017-06-26T13:48:23.741Z,23.49
2017-06-26T13:50:52.829Z,23.55
2017-06-26T13:53:21.893Z,23.43
2017-06-26T13:55:50.962Z,23.21
2017-06-26T13:58:20.054Z,23.24
2017-06-26T14:00:49.116Z,23.38
2017-06-26T14:03:18.506Z,23.38
2017-06-26T14:05:47.520Z,23.43
2017-06-26T14:08:16.609Z,23.38
2017-06-26T14:10:45.653Z,23.43
2017-06-26T14:13:14.734Z,23.28
2017-06-26T14:15:43.800Z,23.36
2017-06-26T14:18:12.886Z,23.51
2017-06-26T14:20:41.956Z,23.53
2017-06-26T14:23:11.146Z,23.52
2017-06-26T14:25:40.223Z,23.56
2017-06-26T14:28:09.338Z,23.54
2017-06-26T14:30:38.404Z,23.62
2017-06-26T14:33:07.470Z,23.75
2017-06-26T14:35:36.571Z,23.89
2017-06-26T14:38:05.711Z,23.94
2017-06-26T14:40:34.776Z,23.99
2017-06-26T14:43:03.842Z,23.94
2017-06-26T14:45:32.890Z,24.02
2017-06-26T14:48:02.036Z,23.90
2017-06-26T14:50:31.083Z,23.91
2017-06-26T14:53:00.172Z,23.90
2017-06-26T14:55:29.249Z,23.80
2017-06-26T14:57:58.304Z,23.79
2017-06-26T15:00:27.364Z,23.91
2017-06-26T15:02:56.641Z,24.02
2017-06-26T15:05:25.772Z,24.09
2017-06-26T15:07:54.832Z,24.14
2017-06-26T15:10:23.922Z,24.04
2017-06-26T15:12:53.007Z,24.00
2017-06-26T15:15:22.073Z,23.92
2017-06-26T15:17:51.148Z,23.91
2017-06-26T15:20:20.240Z,23.97
2017-06-26T15:22:49.301Z,23.96
2017-06-26T15:25:18.417Z,23.90
2017-06-26T15:27:47.486Z,23.89
2017-06-26T15:30:16.852Z,23.90
2017-06-26T15:32:46.895Z,23.85
2017-06-26T15:35:15.956Z,23.79
2017-06-26T15:37:45.052Z,23.73
2017-06-26T15:40:14.163Z,23.78
2017-06-26T15:42:43.179Z,23.80
2017-06-26T15:45:12.283Z,23.84
2017-06-26T15:47:41.374Z,23.77
2017-06-26T15:50:10.492Z,23.79
2017-06-26T15:52:39.561Z,23.78
2017-06-26T15:55:08.635Z,23.83
2017-06-26T15:57:37.727Z,23.78
2017-06-26T16:00:06.795Z,23.71
2017-06-26T16:02:35.851Z,23.72
2017-06-26T16:05:04.943Z,23.66
2017-06-26T16:07:33.993Z,23.60
2017-06-26T16:10:03.139Z,23.56
2017-06-26T16:12:32.193Z,23.47
2017-06-26T16:15:01.244Z,23.58
2017-06-26T16:17:30.304Z,23.62
2017-06-26T16:19:59.383Z,23.68
2017-06-26T16:22:28.473Z,23.77
2017-06-26T16:24:57.604Z,23.72
2017-06-26T16:27:26.678Z,23.71
2017-06-26T16:29:55.743Z,23.60
2017-06-26T16:32:24.832Z,23.57
2017-06-26T16:34:53.904Z,23.52
2017-06-26T16:37:22.973Z,23.63
2017-06-26T16:39:52.095Z,23.70
2017-06-26T16:42:21.156Z,23.73
2017-06-26T16:44:50.246Z,23.80
2017-06-26T16:47:19.304Z,23.70
2017-06-26T16:49:48.404Z,23.58
2017-06-26T16:52:17.458Z,23.53
2017-06-26T16:54:46.526Z,23.56
2017-06-26T16:57:15.641Z,23.55
2017-06-26T16:59:44.986Z,23.47
2017-06-26T17:02:14.043Z,23.41
2017-06-26T17:04:43.123Z,23.44
2017-06-26T17:07:12.196Z,23.43
2017-06-26T17:09:41.292Z,23.41
2017-06-26T17:12:10.338Z,23.37
2017-06-26T17:14:39.391Z,23.26
2017-06-26T17:17:08.448Z,23.25
2017-06-26T17:19:37.553Z,23.28
2017-06-26T17:22:06.685Z,23.30
2017-06-26T17:24:35.735Z,23.28
2017-06-26T17:27:04.809Z,23.21
2017-06-26T17:29:33.872Z,23.26
2017-06-26T17:32:02.986Z,23.27
2017-06-26T17:34:32.073Z,23.23
2017-06-26T17:37:02.125Z,23.14
2017-06-26T17:39:31.283Z,23.13
2017-06-26T17:42:00.339Z,23.16
2017-06-26T17:44:29.393Z,23.16
2017-06-26T17:46:58.490Z,23.17
2017-06-26T17:49:27.544Z,23.14
2017-06-26T17:51:56.632Z,23.14
2017-06-26T17:54:25.680Z,23.15
2017-06-26T17:56:54.749Z,23.10
2017-06-26T17:59:23.820Z,23.09
2017-06-26T18:01:52.889Z,23.07
2017-06-26T18:04:21.952Z,22.99
2017-06-26T18:06:51.255Z,23.00
2017-06-26T18:09:21.542Z,22.91
2017-06-26T18:11:50.605Z,22.80
2017-06-26T18:14:19.705Z,22.64
2017-06-26T18:16:48.750Z,22.54
2017-06-26T18:19:17.796Z,22.48
2017-06-26T18:21:46.893Z,22.44
2017-06-26T18:24:15.931Z,22.39
2017-06-26T18:26:45.064Z,22.38
2017-06-26T18:29:14.123Z,22.40
2017-06-26T18:31:43.184Z,22.38
2017-06-26T18:34:12.279Z,22.43
2017-06-26T18:36:41.371Z,22.41
2017-06-26T18:39:10.464Z,22.42
2017-06-26T18:41:39.521Z,22.41
2017-06-26T18:44:08.743Z,22.35
2017-06-26T18:46:37.801Z,22.36
2017-06-26T18:49:06.874Z,22.36
2017-06-26T18:51:35.922Z,22.37
2017-06-26T18:54:05.032Z,22.21
2017-06-26T18:56:34.118Z,22.07
2017-06-26T18:59:03.165Z,22.05
2017-06-26T19:01:32.552Z,22.18
2017-06-26T19:04:01.634Z,22.41
2017-06-26T19:06:30.700Z,22.63
2017-06-26T19:08:59.782Z,22.57
2017-06-26T19:11:28.856Z,22.35
2017-06-26T19:13:58.167Z,22.11
2017-06-26T19:16:27.207Z,21.89
2017-06-26T19:18:56.292Z,21.71
2017-06-26T19:21:25.356Z,21.52
2017-06-26T19:23:54.703Z,21.48
2017-06-26T19:26:23.771Z,21.36
2017-06-26T19:28:52.860Z,21.29
2017-06-26T19:31:21.906Z,21.24
2017-06-26T19:33:51.016Z,21.17
2017-06-26T19:36:20.100Z,21.08
2017-06-26T19:38:49.210Z,21.02
2017-06-26T19:41:18.300Z,20.93
2017-06-26T19:43:47.358Z,20.87
2017-06-26T19:46:16.425Z,20.83
2017-06-26T19:48:45.480Z,20.81
2017-06-26T19:51:14.596Z,20.77
2017-06-26T19:53:43.657Z,20.78
2017-06-26T19:56:12.723Z,20.77
2017-06-26T19:58:41.793Z,20.68
2017-06-26T20:01:11.916Z,20.56
2017-06-26T20:03:40.975Z,20.45
2017-06-26T20:06:10.298Z,20.37
2017-06-26T20:08:39.408Z,20.32
2017-06-26T20:11:08.546Z,20.26
2017-06-26T20:13:37.626Z,20.22
2017-06-26T20:16:06.792Z,20.17
2017-06-26T20:18:35.820Z,20.16
2017-06-26T20:21:04.889Z,20.18
2017-06-26T20:23:33.941Z,20.21
2017-06-26T20:26:03.783Z,20.20
2017-06-26T20:28:32.867Z,20.15
2017-06-26T20:31:01.972Z,20.11
2017-06-26T20:33:31.031Z,20.08
2017-06-26T20:36:01.455Z,20.05
2017-06-26T20:38:30.500Z,20.02
2017-06-26T20:40:59.592Z,20.03
2017-06-26T20:43:29.163Z,20.10
2017-06-26T20:45:58.222Z,20.05
2017-06-26T20:48:27.288Z,20.06
2017-06-26T20:50:56.356Z,20.07
2017-06-26T20:53:25.475Z,20.07
2017-06-26T20:55:54.834Z,20.06
2017-06-26T20:58:23.985Z,19.99
2017-06-26T21:00:53.854Z,19.98
2017-06-26T21:03:23.058Z,19.95
2017-06-26T21:05:52.472Z,19.86
2017-06-26T21:08:22.254Z,19.84
2017-06-26T21:10:51.352Z,19.81
2017-06-26T21:13:21.566Z,19.79
2017-06-26T21:15:51.092Z,19.75
2017-06-26T21:18:20.171Z,19.73
2017-06-26T21:20:49.577Z,19.67
2017-06-26T21:23:18.658Z,19.60
2017-06-26T21:25:47.770Z,19.49
2017-06-26T21:28:16.903Z,19.40
2017-06-26T21:30:45.961Z,19.27
2017-06-26T21:33:15.217Z,19.26
2017-06-26T21:35:44.512Z,19.24
2017-06-26T21:38:13.601Z,19.16
2017-06-26T21:40:42.971Z,19.10
2017-06-26T21:43:12.308Z,19.08
2017-06-26T21:45:41.365Z,19.09
2017-06-26T21:48:10.516Z,19.02
2017-06-26T21:50:39.596Z,18.94
2017-06-26T21:53:08.672Z,18.82
2017-06-26T21:55:37.714Z,18.75
2017-06-26T21:58:06.796Z,18.61
2017-06-26T22:00:35.861Z,18.50
2017-06-26T22:03:05.134Z,18.41
2017-06-26T22:05:34.536Z,18.38
2017-06-26T22:08:03.620Z,18.27
2017-06-26T22:10:32.695Z,18.27
2017-06-26T22:13:01.772Z,18.20
2017-06-26T22:15:30.813Z,18.10
2017-06-26T22:17:59.883Z,18.00
2017-06-26T22:20:28.939Z,17.90
2017-06-26T22:22:58.009Z,17.81
2017-06-26T22:25:27.055Z,17.75
2017-06-26T22:27:56.172Z,17.71
2017-06-26T22:30:25.268Z,17.67
2017-06-26T22:32:54.359Z,17.62
2017-06-26T22:35:23.519Z,17.55
2017-06-26T22:37:52.559Z,17.54
2017-06-26T22:40:21.645Z,17.50
2017-06-26T22:42:50.702Z,17.46
2017-06-26T22:45:19.782Z,17.41
2017-06-26T22:47:48.884Z,17.37
2017-06-26T22:50:17.944Z,17.29
2017-06-26T22:52:47.014Z,17.24
2017-06-26T22:55:16.072Z,17.17
2017-06-26T22:57:45.167Z,17.13
2017-06-26T23:00:14.195Z,17.09
2017-06-26T23:02:43.295Z,17.04
2017-06-26T23:05:12.368Z,16.98
2017-06-26T23:07:41.420Z,16.90
2017-06-26T23:10:10.700Z,16.88
2017-06-26T23:12:39.803Z,16.77
2017-06-26T23:15:08.889Z,16.81
2017-06-26T23:17:37.975Z,16.76
2017-06-26T23:20:07.021Z,16.73
2017-06-26T23:22:36.100Z,16.67
2017-06-26T23:25:05.193Z,16.54
2017-06-26T23:27:34.233Z,16.54
2017-06-26T23:30:03.305Z,16.51
2017-06-26T23:32:32.435Z,16.46
2017-06-26T23:35:01.479Z,16.47
2017-06-26T23:37:30.552Z,16.48
2017-06-26T23:39:59.635Z,16.42
2017-06-26T23:42:28.685Z,16.36
2017-06-26T23:44:57.763Z,16.36
2017-06-26T23:47:27.067Z,16.34
2017-06-26T23:49:56.116Z,16.31
2017-06-26T23:52:25.173Z,16.27
2017-06-26T23:54:54.247Z,16.24
2017-06-26T23:57:23.336Z,16.20
2017-06-26T23:59:52.387Z,16.19
